ButlerWeather Station
Hourly Leaf Wetness Data

Source: University of Missouri

To the bottom of the page

Year Month Day Hour Leaf Wetness Total
Precipitation
Avg. Temp Avg. Rel.
Humidity
Wind
Speed
CST mV in mm F C % mph
2021 08 21 1:00 Wet 558.0 0.9 22.61 68.1 20.0 90.6 n/a
2021 08 21 2:00 Wet 584.9 1.1 26.92 67.0 19.4 95.3 n/a
2021 08 21 3:00 Wet 487.2 0.0 0.76 67.2 19.6 96.6 n/a
2021 08 21 4:00 Wet 502.6 0.0 1.02 67.4 19.7 96.9 n/a
2021 08 21 5:00 Wet 445.3 0.0 0.25 67.2 19.6 96.9 n/a
2021 08 21 6:00 Wet 378.3 0.0 0.00 67.2 19.5 96.6 n/a
2021 08 21 7:00 Wet 356.4 0.0 0.00 67.6 19.8 95.9 n/a
2021 08 21 8:00 Wet 299.8 0.0 0.00 69.5 20.9 93.3 n/a
2021 08 21 9:00 265.9 0.0 0.00 70.9 21.6 90.3 n/a
2021 08 21 10:00 265.5 0.0 0.00 72.1 22.3 88.4 n/a
2021 08 21 11:00 268.0 0.0 0.00 72.3 22.4 88.7 n/a
2021 08 21 12:00 266.1 0.0 0.00 72.7 22.6 90.2 n/a
2021 08 21 13:00 263.9 0.0 0.00 75.6 24.2 82.4 n/a
2021 08 21 14:00 262.7 0.0 0.00 78.9 26.1 72.64 n/a
2021 08 21 15:00 263.3 0.0 0.00 80.7 27.0 68.04 n/a
2021 08 21 16:00 263.4 0.0 0.00 81.9 27.7 64.2 n/a
2021 08 21 17:00 263.4 0.0 0.00 82.4 28.0 58.82 n/a
2021 08 21 18:00 263.4 0.0 0.00 81.6 27.5 58.94 n/a
2021 08 21 19:00 263.6 0.0 0.00 79.3 26.3 59.85 n/a
2021 08 21 20:00 264.8 0.0 0.00 75.7 24.3 66.6 n/a
2021 08 21 21:00 265.8 0.0 0.00 73.1 22.8 74.58 n/a
2021 08 21 22:00 265.8 0.0 0.00 72.1 22.3 77.18 n/a
2021 08 21 23:00 269.1 0.0 0.00 70.3 21.3 81.6 n/a
2021 08 21 24:00 274.4 0.0 0.00 68.7 20.4 84.5 n/a
2021 08 22 1:00 266.3 0.0 0.00 69.1 20.6 78.96 n/a
2021 08 22 2:00 266.6 0.0 0.00 68.2 20.1 80.3 n/a
2021 08 22 3:00 267.9 0.0 0.00 67.1 19.5 82.4 n/a
2021 08 22 4:00 267.7 0.0 0.00 66.2 19.0 84.9 n/a
2021 08 22 5:00 267.4 0.0 0.00 65.8 18.8 84.5 n/a
2021 08 22 6:00 267.3 0.0 0.00 65.4 18.5 84.4 n/a
2021 08 22 7:00 266.8 0.0 0.00 65.8 18.8 85 n/a
2021 08 22 8:00 264.0 0.0 0.00 69.1 20.6 78.76 n/a
2021 08 22 9:00 262.7 0.0 0.00 72.6 22.6 71.15 n/a
2021 08 22 10:00 261.8 0.0 0.00 75.5 24.2 68.34 n/a
2021 08 22 11:00 262.0 0.0 0.00 77.3 25.2 68.79 n/a
2021 08 22 12:00 262.4 0.0 0.00 79.1 26.2 68.19 n/a
2021 08 22 13:00 262.1 0.0 0.00 80.6 27.0 67.71 n/a
2021 08 22 14:00 262.3 0.0 0.00 82.3 28.0 68.18 n/a
2021 08 22 15:00 263.1 0.0 0.00 84.0 28.9 68.42 n/a
2021 08 22 16:00 263.4 0.0 0.00 85.4 29.6 66.35 n/a
2021 08 22 17:00 263.4 0.0 0.00 86.0 30.0 65.22 n/a
2021 08 22 18:00 263.4 0.0 0.00 85.8 29.9 66.02 n/a
2021 08 22 19:00 264.2 0.0 0.00 83.9 28.9 71.56 n/a
2021 08 22 20:00 264.9 0.0 0.00 81.5 27.5 76.11 n/a
2021 08 22 21:00 265.5 0.0 0.00 80.1 26.7 77.46 n/a
2021 08 22 22:00 265.7 0.0 0.00 79.2 26.2 79.64 n/a
2021 08 22 23:00 266.1 0.0 0.00 78.7 25.9 81.4 n/a
2021 08 22 24:00 266.4 0.0 0.00 78.3 25.7 83.2 n/a
2021 08 23 1:00 266.9 0.0 0.00 77.6 25.4 84.6 n/a
2021 08 23 2:00 267.9 0.0 0.00 76.6 24.8 87.4 n/a
2021 08 23 3:00 267.7 0.0 0.00 76.4 24.6 86.7 n/a
2021 08 23 4:00 268.3 0.0 0.00 75.6 24.2 87.7 n/a
2021 08 23 5:00 268.9 0.0 0.00 74.9 23.8 88.8 n/a
2021 08 23 6:00 269.4 0.0 0.00 74.4 23.6 89.6 n/a
2021 08 23 7:00 267.8 0.0 0.00 74.9 23.8 89.3 n/a
2021 08 23 8:00 264.6 0.0 0.00 78.3 25.7 81.4 n/a
2021 08 23 9:00 263.1 0.0 0.00 81.5 27.5 73.81 n/a
2021 08 23 10:00 262.4 0.0 0.00 84.1 29.0 67.85 n/a
2021 08 23 11:00 262.0 0.0 0.00 86.5 30.3 63.3 n/a
2021 08 23 12:00 262.0 0.0 0.00 87.8 31.0 61.55 n/a
2021 08 23 13:00 262.0 0.0 0.00 88.9 31.6 60.41 n/a
2021 08 23 14:00 262.0 0.0 0.00 89.7 32.1 57.49 n/a
2021 08 23 15:00 262.4 0.0 0.00 90.7 32.6 54.85 n/a
2021 08 23 16:00 262.5 0.0 0.00 90.8 32.7 53.53 n/a
2021 08 23 17:00 262.4 0.0 0.00 90.4 32.4 53.95 n/a
2021 08 23 18:00 262.5 0.0 0.00 89.2 31.8 55.82 n/a
2021 08 23 19:00 263.0 0.0 0.00 86.4 30.2 60.43 n/a
2021 08 23 20:00 264.0 0.0 0.00 83.4 28.5 66.81 n/a
2021 08 23 21:00 264.4 0.0 0.00 81.6 27.5 68.23 n/a
2021 08 23 22:00 265.0 0.0 0.00 79.6 26.4 74.16 n/a
2021 08 23 23:00 265.5 0.0 0.00 78.6 25.9 76.02 n/a
2021 08 23 24:00 265.6 0.0 0.00 77.3 25.2 77.99 n/a
2021 08 24 1:00 265.6 0.0 0.00 76.6 24.8 78.41 n/a
2021 08 24 2:00 265.7 0.0 0.00 76.2 24.5 78.38 n/a
2021 08 24 3:00 266.2 0.0 0.00 74.9 23.9 80.8 n/a
2021 08 24 4:00 266.5 0.0 0.00 74.2 23.5 81.9 n/a
2021 08 24 5:00 266.8 0.0 0.00 73.7 23.2 83.4 n/a
2021 08 24 6:00 266.9 0.0 0.00 73.4 23.0 84.1 n/a
2021 08 24 7:00 266.2 0.0 0.00 73.9 23.3 83.4 n/a
2021 08 24 8:00 264.4 0.0 0.00 76.7 24.9 77.57 n/a
2021 08 24 9:00 263.1 0.0 0.00 79.7 26.5 71.47 n/a
2021 08 24 10:00 262.4 0.0 0.00 82.5 28.1 65.77 n/a
2021 08 24 11:00 262.1 0.0 0.00 85.0 29.4 61.54 n/a
2021 08 24 12:00 262.0 0.0 0.00 87.2 30.7 58.58 n/a
2021 08 24 13:00 261.8 0.0 0.00 89.0 31.7 56.23 n/a
2021 08 24 14:00 261.9 0.0 0.00 90.2 32.3 53.88 n/a
2021 08 24 15:00 262.1 0.0 0.00 90.7 32.6 52.26 n/a
2021 08 24 16:00 262.3 0.0 0.00 90.8 32.7 53.35 n/a
2021 08 24 17:00 262.4 0.0 0.00 90.2 32.3 55.04 n/a
2021 08 24 18:00 262.7 0.0 0.00 88.9 31.6 56.99 n/a
2021 08 24 19:00 263.2 0.0 0.00 85.7 29.9 63.1 n/a
2021 08 24 20:00 264.8 0.0 0.00 81.8 27.7 69.7 n/a
2021 08 24 21:00 264.4 0.0 0.00 80.9 27.1 66.47 n/a
2021 08 24 22:00 264.2 0.0 0.00 79.9 26.6 66.25 n/a
2021 08 24 23:00 264.1 0.0 0.00 79.3 26.3 66.62 n/a
2021 08 24 24:00 264.3 0.0 0.00 78.9 26.1 67.83 n/a
2021 08 25 1:00 264.8 0.0 0.00 77.3 25.1 71.54 n/a
2021 08 25 2:00 264.8 0.0 0.00 76.2 24.5 73.97 n/a
2021 08 25 3:00 265.0 0.0 0.00 75.0 23.9 77.19 n/a
2021 08 25 4:00 265.5 0.0 0.00 74.5 23.6 78.09 n/a
2021 08 25 5:00 265.5 0.0 0.00 74.4 23.5 78.31 n/a
2021 08 25 6:00 265.5 0.0 0.00 73.8 23.2 79.61 n/a
2021 08 25 7:00 265.4 0.0 0.00 74.0 23.3 79.4 n/a
2021 08 25 8:00 264.0 0.0 0.00 75.4 24.1 77.41 n/a
2021 08 25 9:00 262.3 0.0 0.00 79.3 26.3 71.47 n/a
2021 08 25 10:00 261.5 0.0 0.00 81.8 27.7 68.87 n/a
2021 08 25 11:00 262.0 0.0 0.00 83.6 28.6 67.75 n/a
2021 08 25 12:00 261.9 0.0 0.00 85.1 29.5 65.41 n/a
2021 08 25 13:00 261.4 0.0 0.00 87.5 30.8 61.9 n/a
2021 08 25 14:00 261.9 0.0 0.00 88.6 31.4 59.68 n/a
2021 08 25 15:00 262.2 0.0 0.00 89.6 32.0 56.76 n/a
2021 08 25 16:00 262.1 0.0 0.00 90.3 32.4 52.68 n/a
2021 08 25 17:00 262.2 0.0 0.00 89.8 32.1 56.36 n/a
2021 08 25 18:00 262.7 0.0 0.00 88.7 31.5 59.98 n/a
2021 08 25 19:00 263.3 0.0 0.00 86.3 30.2 65.8 n/a
2021 08 25 20:00 264.7 0.0 0.00 83.7 28.7 71.79 n/a
2021 08 25 21:00 264.8 0.0 0.00 82.9 28.3 71.33 n/a
2021 08 25 22:00 265.2 0.0 0.00 80.9 27.1 75.15 n/a
2021 08 25 23:00 266.0 0.0 0.00 78.9 26.1 79.59 n/a
2021 08 25 24:00 267.0 0.0 0.00 77.8 25.4 80.6 n/a
2021 08 26 1:00 266.6 0.0 0.00 77.7 25.4 77.32 n/a
2021 08 26 2:00 267.8 0.0 0.00 76.2 24.5 81.3 n/a
2021 08 26 3:00 269.0 0.0 0.00 75.2 24.0 84 n/a
2021 08 26 4:00 270.8 0.0 0.00 74.0 23.3 86.9 n/a
2021 08 26 5:00 270.2 0.0 0.00 73.5 23.1 87.1 n/a
2021 08 26 6:00 268.6 0.0 0.00 73.5 23.1 85 n/a
2021 08 26 7:00 266.7 0.0 0.00 74.3 23.5 81.4 n/a
2021 08 26 8:00 264.0 0.0 0.00 77.0 25.0 77.67 n/a
2021 08 26 9:00 262.6 0.0 0.00 80.0 26.6 73.04 n/a
2021 08 26 10:00 261.7 0.0 0.00 83.0 28.3 69.15 n/a
2021 08 26 11:00 261.0 0.0 0.00 86.2 30.1 64.5 n/a
2021 08 26 12:00 261.1 0.0 0.00 88.1 31.1 62.39 n/a
2021 08 26 13:00 261.4 0.0 0.00 89.2 31.8 59.69 n/a
2021 08 26 14:00 261.4 0.0 0.00 90.3 32.4 55.01 n/a
2021 08 26 15:00 261.9 0.0 0.00 90.8 32.6 53.54 n/a
2021 08 26 16:00 262.1 0.0 0.00 91.2 32.9 52.39 n/a
2021 08 26 17:00 261.9 0.0 0.00 91.0 32.8 50.63 n/a
2021 08 26 18:00 262.0 0.0 0.00 90.0 32.2 53.47 n/a
2021 08 26 19:00 262.8 0.0 0.00 87.4 30.8 60.17 n/a
2021 08 26 20:00 264.7 0.0 0.00 83.9 28.8 70.05 n/a
2021 08 26 21:00 264.8 0.0 0.00 82.3 27.9 72.97 n/a
2021 08 26 22:00 264.8 0.0 0.00 82.0 27.8 71.27 n/a
2021 08 26 23:00 264.8 0.0 0.00 81.4 27.4 69.34 n/a
2021 08 26 24:00 264.7 0.0 0.00 79.9 26.6 69.14 n/a
2021 08 27 1:00 264.8 0.0 0.00 77.9 25.5 70.32 n/a
2021 08 27 2:00 264.8 0.0 0.00 76.1 24.5 73.53 n/a
2021 08 27 3:00 265.3 0.0 0.00 74.7 23.7 76.08 n/a
2021 08 27 4:00 266.8 0.0 0.00 73.1 22.8 80.1 n/a
2021 08 27 5:00 267.1 0.0 0.00 72.7 22.6 81.1 n/a
2021 08 27 6:00 266.7 0.0 0.00 72.6 22.6 81.1 n/a
2021 08 27 7:00 265.9 0.0 0.00 73.1 22.8 81 n/a
2021 08 27 8:00 264.4 0.0 0.00 75.3 24.1 78.83 n/a
2021 08 27 9:00 263.1 0.0 0.00 78.8 26.0 74.07 n/a
2021 08 27 10:00 262.2 0.0 0.00 82.7 28.1 67.78 n/a
2021 08 27 11:00 262.0 0.0 0.00 84.8 29.4 63.52 n/a
2021 08 27 12:00 261.7 0.0 0.00 86.7 30.4 60.07 n/a
2021 08 27 13:00 261.8 0.0 0.00 87.6 30.9 59.05 n/a
2021 08 27 14:00 261.9 0.0 0.00 88.4 31.4 55.73 n/a
2021 08 27 15:00 262.1 0.0 0.00 88.6 31.5 53.98 n/a
2021 08 27 16:00 262.1 0.0 0.00 89.0 31.6 52.99 n/a
2021 08 27 17:00 262.1 0.0 0.00 88.6 31.4 54 n/a
2021 08 27 18:00 262.4 0.0 0.00 87.5 30.8 56.01 n/a
2021 08 27 19:00 263.1 0.0 0.00 85.2 29.5 61.37 n/a
2021 08 27 20:00 264.1 0.0 0.00 82.6 28.1 65.29 n/a
2021 08 27 21:00 264.5 0.0 0.00 80.9 27.2 68.31 n/a
2021 08 27 22:00 264.8 0.0 0.00 79.7 26.5 71.14 n/a
2021 08 27 23:00 265.0 0.0 0.00 78.7 25.9 74.21 n/a
2021 08 27 24:00 265.5 0.0 0.00 77.6 25.3 77.38 n/a
2021 08 28 1:00 266.0 0.0 0.00 76.4 24.6 80.2 n/a
2021 08 28 2:00 266.2 0.0 0.00 75.3 24.1 81.2 n/a
2021 08 28 3:00 266.3 0.0 0.00 74.3 23.5 81.6 n/a
2021 08 28 4:00 266.8 0.0 0.00 73.3 23.0 82.6 n/a
2021 08 28 5:00 267.9 0.0 0.00 72.2 22.3 84.6 n/a
2021 08 28 6:00 268.3 0.0 0.00 71.4 21.9 85.9 n/a
2021 08 28 7:00 266.6 0.0 0.00 71.9 22.2 84 n/a
2021 08 28 8:00 264.2 0.0 0.00 74.6 23.6 78.56 n/a
2021 08 28 9:00 263.1 0.0 0.00 77.8 25.4 73.15 n/a
2021 08 28 10:00 262.2 0.0 0.00 81.4 27.4 67.19 n/a
2021 08 28 11:00 261.8 0.0 0.00 83.4 28.6 62.13 n/a
2021 08 28 12:00 261.2 0.0 0.00 84.9 29.4 58.24 n/a
2021 08 28 13:00 261.2 0.0 0.00 85.8 29.9 55.91 n/a
2021 08 28 14:00 261.4 0.0 0.00 86.5 30.3 54.65 n/a
2021 08 28 15:00 261.8 0.0 0.00 87.1 30.6 51.47 n/a
2021 08 28 16:00 262.0 0.0 0.00 87.5 30.9 49.94 n/a
2021 08 28 17:00 262.0 0.0 0.00 87.0 30.6 51.12 n/a
2021 08 28 18:00 262.1 0.0 0.00 86.0 30.0 54.88 n/a
2021 08 28 19:00 262.8 0.0 0.00 83.7 28.7 61.29 n/a
2021 08 28 20:00 263.4 0.0 0.00 81.2 27.4 64.27 n/a
2021 08 28 21:00 264.0 0.0 0.00 79.3 26.3 68.16 n/a
2021 08 28 22:00 264.8 0.0 0.00 77.3 25.2 72.84 n/a
2021 08 28 23:00 264.8 0.0 0.00 76.6 24.8 74.25 n/a
2021 08 28 24:00 265.2 0.0 0.00 75.5 24.2 76.25 n/a
2021 08 29 1:00 265.6 0.0 0.00 74.6 23.7 77.67 n/a
2021 08 29 2:00 266.2 0.0 0.00 73.6 23.1 79.96 n/a
2021 08 29 3:00 266.6 0.0 0.00 72.6 22.6 82.4 n/a
2021 08 29 4:00 266.9 0.0 0.00 72.1 22.3 82.8 n/a
2021 08 29 5:00 266.9 0.0 0.00 71.9 22.1 82.6 n/a
2021 08 29 6:00 268.3 0.0 0.00 71.3 21.8 83.9 n/a
2021 08 29 7:00 266.9 0.0 0.00 71.8 22.1 83.7 n/a
2021 08 29 8:00 265.6 0.0 0.00 73.4 23.0 81.2 n/a
2021 08 29 9:00 262.9 0.0 0.00 76.7 24.8 76.68 n/a
2021 08 29 10:00 261.7 0.0 0.00 80.2 26.8 69.69 n/a
2021 08 29 11:00 262.4 0.0 0.00 79.1 26.1 71.59 n/a
2021 08 29 12:00 261.7 0.0 0.00 80.5 26.9 69.51 n/a
2021 08 29 13:00 261.0 0.0 0.00 82.5 28.0 66.55 n/a
2021 08 29 14:00 261.3 0.0 0.00 84.0 28.9 63.56 n/a
2021 08 29 15:00 262.3 0.0 0.00 85.3 29.6 59.62 n/a
2021 08 29 16:00 262.7 0.0 0.00 85.5 29.7 58.93 n/a
2021 08 29 17:00 262.3 0.0 0.00 85.5 29.7 55.52 n/a
2021 08 29 18:00 262.1 0.0 0.00 85.2 29.5 54.97 n/a
2021 08 29 19:00 263.3 0.0 0.00 82.5 28.0 63.07 n/a
2021 08 29 20:00 264.8 0.0 0.00 79.1 26.1 71.15 n/a
2021 08 29 21:00 265.0 0.0 0.00 78.2 25.7 76.42 n/a
2021 08 29 22:00 265.6 0.0 0.00 77.0 25.0 78.96 n/a
2021 08 29 23:00 266.1 0.0 0.00 76.0 24.4 78.23 n/a
2021 08 29 24:00 269.1 0.0 0.00 74.3 23.5 82.4 n/a
2021 08 30 1:00 270.4 0.0 0.00 73.2 22.9 85.6 n/a
2021 08 30 2:00 270.5 0.0 0.00 72.4 22.4 87.5 n/a
2021 08 30 3:00 270.6 0.0 0.00 72.2 22.4 87.4 n/a
2021 08 30 4:00 276.4 0.0 0.00 71.1 21.7 90.8 n/a
2021 08 30 5:00 Wet 308.0 0.0 0.00 70.6 21.4 92.9 n/a
2021 08 30 6:00 Wet 344.5 0.0 0.00 70.2 21.2 93.8 n/a
2021 08 30 7:00 Wet 337.7 0.0 0.00 70.9 21.6 94 n/a
2021 08 30 8:00 276.2 0.0 0.00 74.6 23.7 86.3 n/a
2021 08 30 9:00 263.2 0.0 0.00 78.0 25.6 79.46 n/a
2021 08 30 10:00 261.1 0.0 0.00 81.9 27.7 65.62 n/a
2021 08 30 11:00 260.9 0.0 0.00 83.0 28.3 63.54 n/a
2021 08 30 12:00 260.4 0.0 0.00 84.4 29.1 61.71 n/a
2021 08 30 13:00 260.4 0.0 0.00 85.5 29.7 58.32 n/a
2021 08 30 14:00 260.5 0.0 0.00 86.4 30.2 56.37 n/a
2021 08 30 15:00 261.6 0.0 0.00 85.9 29.9 56.7 n/a
2021 08 30 16:00 261.7 0.0 0.00 86.1 30.0 56.68 n/a
2021 08 30 17:00 262.8 0.0 0.00 81.9 27.7 63.36 n/a
2021 08 30 18:00 262.9 0.0 0.00 81.3 27.4 65.12 n/a
2021 08 30 19:00 264.0 0.0 0.00 79.2 26.2 71.13 n/a
2021 08 30 20:00 265.6 0.0 0.00 76.9 25.0 77.5 n/a
2021 08 30 21:00 268.2 0.0 0.00 75.3 24.0 83.1 n/a
2021 08 30 22:00 269.6 0.0 0.00 73.5 23.0 85.6 n/a
2021 08 30 23:00 271.0 0.0 0.00 72.1 22.3 85.9 n/a
2021 08 30 24:00 275.9 0.0 0.00 71.0 21.7 88.2 n/a
2021 08 31 1:00 Wet 304.2 0.0 0.00 70.0 21.1 90.4 n/a
2021 08 31 2:00 Wet 343.6 0.0 0.00 69.2 20.7 92.3 n/a
2021 08 31 3:00 Wet 366.7 0.0 0.00 68.5 20.3 93.8 n/a
2021 08 31 4:00 Wet 379.7 0.0 0.00 68.0 20.0 95.2 n/a
2021 08 31 5:00 Wet 374.2 0.0 0.00 68.0 20.0 95.6 n/a
2021 08 31 6:00 Wet 376.3 0.0 0.00 68.1 20.0 95.7 n/a
2021 08 31 7:00 Wet 355.3 0.0 0.00 68.6 20.3 95.2 n/a
2021 08 31 8:00 278.1 0.0 0.00 70.8 21.5 90.7 n/a
2021 08 31 9:00 263.4 0.0 0.00 74.0 23.4 80.7 n/a
2021 08 31 10:00 264.2 0.0 0.00 75.8 24.3 73.65 n/a
2021 08 31 11:00 Wet 458.6 0.2 5.59 67.2 19.5 89.9 n/a
2021 08 31 12:00 Wet 366.9 0.0 0.00 68.4 20.2 90.1 n/a
2021 08 31 13:00 Wet 322.3 0.0 0.00 70.0 21.1 86.3 n/a
2021 08 31 14:00 262.5 0.0 0.00 75.2 24.0 70.86 n/a
2021 08 31 15:00 263.0 0.0 0.00 77.4 25.2 66.45 n/a
2021 08 31 16:00 263.4 0.0 0.00 79.0 26.1 64.86 n/a
2021 08 31 17:00 263.0 0.0 0.00 80.9 27.1 62.69 n/a
2021 08 31 18:00 263.4 0.0 0.00 80.5 27.0 64.31 n/a
2021 08 31 19:00 264.5 0.0 0.00 76.9 25.0 70.69 n/a
2021 08 31 20:00 265.5 0.0 0.00 74.3 23.5 76.43 n/a
2021 08 31 21:00 265.9 0.0 0.00 72.8 22.7 80.3 n/a
2021 08 31 22:00 266.0 0.0 0.00 72.1 22.3 81.5 n/a
2021 08 31 23:00 266.5 0.0 0.00 70.8 21.5 83.3 n/a
2021 08 31 24:00 268.2 0.0 0.00 69.4 20.8 86.3 n/a
2021 09 01 1:00 268.0 0.0 0.00 68.8 20.4 86.5 n/a
2021 09 01 2:00 267.6 0.0 0.00 68.3 20.1 87.1 n/a
2021 09 01 3:00 268.3 0.0 0.00 67.4 19.6 89.9 n/a
2021 09 01 4:00 268.3 0.0 0.00 66.7 19.3 91.5 n/a
2021 09 01 5:00 269.2 0.0 0.00 65.8 18.8 91.6 n/a
2021 09 01 6:00 268.2 0.0 0.00 65.6 18.6 90.3 n/a
2021 09 01 7:00 267.4 0.0 0.00 65.9 18.8 89.1 n/a
2021 09 01 8:00 266.3 0.0 0.00 67.1 19.5 87.3 n/a
2021 09 01 9:00 265.1 0.0 0.00 69.1 20.6 80.9 n/a
2021 09 01 10:00 264.4 0.0 0.00 70.7 21.5 77.49 n/a
2021 09 01 11:00 263.4 0.0 0.00 73.1 22.8 73.24 n/a
2021 09 01 12:00 262.1 0.0 0.00 75.9 24.4 67.72 n/a
2021 09 01 13:00 262.0 0.0 0.00 77.7 25.4 64.79 n/a
2021 09 01 14:00 262.0 0.0 0.00 79.0 26.1 62.46 n/a
2021 09 01 15:00 262.4 0.0 0.00 80.5 27.0 60.68 n/a
2021 09 01 16:00 262.7 0.0 0.00 80.7 27.1 59.83 n/a
2021 09 01 17:00 262.7 0.0 0.00 80.4 26.9 60.42 n/a
2021 09 01 18:00 263.2 0.0 0.00 78.8 26.0 62.96 n/a
2021 09 01 19:00 264.4 0.0 0.00 76.4 24.7 68.91 n/a
2021 09 01 20:00 265.6 0.0 0.00 73.7 23.2 75.24 n/a
2021 09 01 21:00 268.5 0.0 0.00 71.6 22.0 80.1 n/a
2021 09 01 22:00 283.9 0.0 0.00 69.3 20.7 86.1 n/a
2021 09 01 23:00 Wet 311.2 0.0 0.00 68.4 20.2 88.7 n/a
2021 09 01 24:00 Wet 321.7 0.0 0.00 68.1 20.1 88 n/a
2021 09 02 1:00 Wet 318.1 0.0 0.00 67.4 19.6 87.7 n/a
2021 09 02 2:00 Wet 303.3 0.0 0.00 66.6 19.2 86.3 n/a
2021 09 02 3:00 272.0 0.0 0.00 66.6 19.2 82.7 n/a
2021 09 02 4:00 268.9 0.0 0.00 66.1 18.9 83.2 n/a
2021 09 02 5:00 269.6 0.0 0.00 65.0 18.3 86 n/a
2021 09 02 6:00 268.6 0.0 0.00 65.6 18.6 84.6 n/a
2021 09 02 7:00 266.8 0.0 0.00 66.9 19.4 80.2 n/a
2021 09 02 8:00 264.9 0.0 0.00 68.7 20.4 76.52 n/a
2021 09 02 9:00 264.4 0.0 0.00 70.4 21.4 73.27 n/a
2021 09 02 10:00 263.1 0.0 0.00 73.0 22.8 68.19 n/a
2021 09 02 11:00 262.0 0.0 0.00 75.9 24.4 64.24 n/a
2021 09 02 12:00 261.6 0.0 0.00 78.2 25.7 61.66 n/a
2021 09 02 13:00 262.1 0.0 0.00 78.9 26.0 62.08 n/a
2021 09 02 14:00 262.1 0.0 0.00 79.9 26.6 61.68 n/a
2021 09 02 15:00 262.2 0.0 0.00 80.7 27.1 60.68 n/a
2021 09 02 16:00 262.7 0.0 0.00 80.2 26.8 61.33 n/a
2021 09 02 17:00 262.9 0.0 0.00 79.6 26.5 63.18 n/a
2021 09 02 18:00 263.4 0.0 0.00 78.3 25.8 65.46 n/a
2021 09 02 19:00 264.3 0.0 0.00 76.8 24.9 68.5 n/a
2021 09 02 20:00 264.8 0.0 0.00 75.6 24.2 70 n/a
2021 09 02 21:00 264.8 0.0 0.00 75.5 24.1 69.11 n/a
2021 09 02 22:00 264.8 0.0 0.00 75.4 24.1 69.43 n/a
2021 09 02 23:00 264.8 0.0 0.00 74.5 23.6 72.2 n/a
2021 09 02 24:00 264.9 0.0 0.00 74.0 23.4 72.19 n/a
2021 09 03 1:00 264.9 0.0 0.00 73.9 23.3 71.23 n/a
2021 09 03 2:00 264.9 0.0 0.00 73.3 23.0 72.37 n/a
2021 09 03 3:00 264.9 0.0 0.00 73.0 22.8 72.82 n/a
2021 09 03 4:00 264.9 0.0 0.00 72.2 22.3 74.17 n/a
2021 09 03 5:00 264.9 0.0 0.00 71.6 22.0 74.56 n/a
2021 09 03 6:00 265.0 0.0 0.00 71.0 21.7 75.9 n/a
2021 09 03 7:00 265.5 0.0 0.00 70.4 21.4 78.5 n/a
2021 09 03 8:00 270.2 0.0 0.00 70.2 21.2 81.1 n/a
2021 09 03 9:00 Wet 496.5 0.1 1.52 69.6 20.9 88.2 n/a
2021 09 03 10:00 Wet 567.9 0.1 3.05 69.2 20.7 92.2 n/a
2021 09 03 11:00 Wet 458.1 0.1 1.78 70.1 21.2 94.2 n/a
2021 09 03 12:00 Wet 292.2 0.0 0.00 74.2 23.4 90.8 n/a
2021 09 03 13:00 264.9 0.0 0.00 77.3 25.2 85.1 n/a
2021 09 03 14:00 264.5 0.0 0.00 79.0 26.1 80.5 n/a
2021 09 03 15:00 264.6 0.0 0.00 80.0 26.7 77.54 n/a
2021 09 03 16:00 264.7 0.0 0.00 80.6 27.0 76.46 n/a
2021 09 03 17:00 264.8 0.0 0.00 80.0 26.6 78.2 n/a
2021 09 03 18:00 265.2 0.0 0.00 79.8 26.6 80 n/a
2021 09 03 19:00 265.9 0.0 0.00 79.0 26.1 82.6 n/a
2021 09 03 20:00 266.4 0.0 0.00 78.3 25.7 82.5 n/a
2021 09 03 21:00 266.3 0.0 0.00 78.1 25.6 82.3 n/a
2021 09 03 22:00 267.0 0.0 0.00 77.3 25.2 84.6 n/a
2021 09 03 23:00 267.5 0.0 0.00 76.5 24.7 86.9 n/a
2021 09 03 24:00 267.8 0.0 0.00 75.4 24.1 88.8 n/a
2021 09 04 1:00 Wet 339.6 0.0 0.51 73.1 22.8 89.4 n/a
2021 09 04 2:00 Wet 541.9 0.1 3.05 70.7 21.5 92.5 n/a
2021 09 04 3:00 Wet 536.5 0.4 8.89 70.1 21.2 94.6 n/a
2021 09 04 4:00 Wet 481.0 0.0 0.76 70.0 21.1 95.7 n/a
2021 09 04 5:00 Wet 498.0 0.1 3.56 69.9 21.1 96.3 n/a
2021 09 04 6:00 Wet 588.4 0.5 12.70 69.7 21.0 96.6 n/a
2021 09 04 7:00 Wet 598.5 0.5 12.95 69.7 21.0 97 n/a
2021 09 04 8:00 Wet 598.3 0.4 10.92 69.9 21.1 97.2 n/a
2021 09 04 9:00 Wet 530.7 0.1 3.56 70.4 21.3 97.4 n/a
2021 09 04 10:00 Wet 540.6 0.3 6.60 70.4 21.4 97.5 n/a
2021 09 04 11:00 Wet 545.9 0.3 6.86 70.2 21.2 97.4 n/a
2021 09 04 12:00 Wet 476.7 0.1 1.27 70.7 21.5 97.6 n/a
2021 09 04 13:00 Wet 336.4 0.0 0.00 71.1 21.7 95.9 n/a
2021 09 04 14:00 283.8 0.0 0.00 72.6 22.6 91.2 n/a
2021 09 04 15:00 Wet 349.6 0.0 0.51 73.2 22.9 87 n/a
2021 09 04 16:00 Wet 355.6 0.0 0.00 72.9 22.7 87.6 n/a
2021 09 04 17:00 279.8 0.0 0.00 73.7 23.2 81.2 n/a
2021 09 04 18:00 265.7 0.0 0.00 74.9 23.9 76.8 n/a
2021 09 04 19:00 266.4 0.0 0.00 73.0 22.8 79.62 n/a
2021 09 04 20:00 269.6 0.0 0.00 70.1 21.1 86.9 n/a
2021 09 04 21:00 278.3 0.0 0.00 68.9 20.5 89 n/a
2021 09 04 22:00 Wet 287.8 0.0 0.00 67.9 19.9 90.2 n/a
2021 09 04 23:00 Wet 356.6 0.0 0.00 66.8 19.3 92.6 n/a
2021 09 04 24:00 Wet 421.5 0.0 0.00 65.9 18.8 94.7 n/a
2021 09 05 1:00 Wet 443.0 0.0 0.00 65.0 18.4 94.9 n/a
2021 09 05 2:00 Wet 435.1 0.0 0.00 64.0 17.8 95 n/a
2021 09 05 3:00 Wet 424.7 0.0 0.00 63.0 17.2 95.7 n/a
2021 09 05 4:00 Wet 418.2 0.0 0.00 62.2 16.8 96.3 n/a
2021 09 05 5:00 Wet 415.9 0.0 0.00 61.3 16.3 96.8 n/a
2021 09 05 6:00 Wet 419.3 0.0 0.00 60.5 15.9 97.2 n/a
2021 09 05 7:00 Wet 400.0 0.0 0.00 60.2 15.7 97.5 n/a
2021 09 05 8:00 Wet 295.7 0.0 0.00 62.5 16.9 97.1 n/a
2021 09 05 9:00 263.3 0.0 0.00 66.2 19.0 88 n/a
2021 09 05 10:00 262.9 0.0 0.00 69.0 20.5 78.72 n/a
2021 09 05 11:00 261.4 0.0 0.00 72.1 22.3 67.06 n/a
2021 09 05 12:00 261.0 0.0 0.00 74.0 23.4 61.18 n/a
2021 09 05 13:00 260.7 0.0 0.00 75.6 24.2 56.37 n/a
2021 09 05 14:00 260.8 0.0 0.00 77.3 25.2 53.12 n/a
2021 09 05 15:00 261.5 0.0 0.00 78.3 25.7 52.51 n/a
2021 09 05 16:00 262.0 0.0 0.00 78.7 25.9 51.05 n/a
2021 09 05 17:00 262.1 0.0 0.00 78.6 25.9 51.54 n/a
2021 09 05 18:00 262.6 0.0 0.00 77.1 25.1 57.78 n/a
2021 09 05 19:00 264.7 0.0 0.00 73.8 23.2 67.83 n/a
2021 09 05 20:00 266.9 0.0 0.00 69.8 21.0 76.68 n/a
2021 09 05 21:00 Wet 293.0 0.0 0.00 67.4 19.7 86.4 n/a
2021 09 05 22:00 Wet 369.4 0.0 0.00 65.8 18.8 90.6 n/a
2021 09 05 23:00 Wet 430.4 0.0 0.00 65.1 18.4 92.7 n/a
2021 09 05 24:00 Wet 445.1 0.0 0.00 64.2 17.9 94.7 n/a
2021 09 06 1:00 Wet 427.6 0.0 0.00 63.0 17.2 94.7 n/a
2021 09 06 2:00 Wet 422.9 0.0 0.00 62.5 16.9 95.3 n/a
2021 09 06 3:00 Wet 424.4 0.0 0.00 62.9 17.1 96 n/a
2021 09 06 4:00 Wet 417.3 0.0 0.00 62.0 16.6 95.3 n/a
2021 09 06 5:00 Wet 423.5 0.0 0.00 61.1 16.2 95.9 n/a
2021 09 06 6:00 Wet 417.1 0.0 0.00 61.2 16.2 94.5 n/a
2021 09 06 7:00 Wet 387.0 0.0 0.00 60.8 16.0 94.6 n/a
2021 09 06 8:00 Wet 294.9 0.0 0.00 63.8 17.6 90 n/a
2021 09 06 9:00 263.5 0.0 0.00 68.4 20.2 80.3 n/a
2021 09 06 10:00 262.4 0.0 0.00 72.7 22.6 71.51 n/a
2021 09 06 11:00 261.6 0.0 0.00 76.6 24.8 63.15 n/a
2021 09 06 12:00 260.9 0.0 0.00 79.4 26.3 56.81 n/a
2021 09 06 13:00 260.8 0.0 0.00 81.2 27.4 54.07 n/a
2021 09 06 14:00 261.2 0.0 0.00 82.7 28.2 53.5 n/a
2021 09 06 15:00 261.5 0.0 0.00 83.6 28.7 51.51 n/a
2021 09 06 16:00 262.0 0.0 0.00 83.9 28.9 50.98 n/a
2021 09 06 17:00 262.1 0.0 0.00 83.7 28.7 51.96 n/a
2021 09 06 18:00 262.6 0.0 0.00 82.3 27.9 58.55 n/a
2021 09 06 19:00 264.0 0.0 0.00 78.9 26.1 65.75 n/a
2021 09 06 20:00 264.9 0.0 0.00 76.1 24.5 71.19 n/a
2021 09 06 21:00 265.2 0.0 0.00 74.5 23.6 73.35 n/a
2021 09 06 22:00 265.7 0.0 0.00 72.9 22.7 75.99 n/a
2021 09 06 23:00 266.2 0.0 0.00 71.6 22.0 79.78 n/a
2021 09 06 24:00 266.5 0.0 0.00 70.4 21.3 80.3 n/a
2021 09 07 1:00 266.3 0.0 0.00 69.2 20.7 79.11 n/a
2021 09 07 2:00 267.0 0.0 0.00 67.6 19.8 81.9 n/a
2021 09 07 3:00 267.6 0.0 0.00 66.7 19.3 83 n/a
2021 09 07 4:00 267.6 0.0 0.00 66.1 18.9 83 n/a
2021 09 07 5:00 266.9 0.0 0.00 65.7 18.7 81.5 n/a
2021 09 07 6:00 266.8 0.0 0.00 65.2 18.4 80.8 n/a
2021 09 07 7:00 266.1 0.0 0.00 65.2 18.4 80.7 n/a
2021 09 07 8:00 264.0 0.0 0.00 68.1 20.0 77.58 n/a
2021 09 07 9:00 262.5 0.0 0.00 72.9 22.7 67.64 n/a
2021 09 07 10:00 261.9 0.0 0.00 77.0 25.0 60.79 n/a
2021 09 07 11:00 261.4 0.0 0.00 80.4 26.9 55.19 n/a
2021 09 07 12:00 261.0 0.0 0.00 82.8 28.3 52.08 n/a
2021 09 07 13:00 260.8 0.0 0.00 84.7 29.3 49.65 n/a
2021 09 07 14:00 261.0 0.0 0.00 86.3 30.2 49.78 n/a
2021 09 07 15:00 261.3 0.0 0.00 86.9 30.5 50.35 n/a
2021 09 07 16:00 261.7 0.0 0.00 87.3 30.7 52.02 n/a
2021 09 07 17:00 262.1 0.0 0.00 86.0 30.0 57.54 n/a
2021 09 07 18:00 Wet 317.6 0.2 4.57 82.1 27.8 66.72 n/a
2021 09 07 19:00 Wet 365.8 0.0 0.51 72.2 22.3 86.1 n/a
2021 09 07 20:00 Wet 341.4 0.0 0.00 72.1 22.3 92.3 n/a
2021 09 07 21:00 Wet 311.4 0.0 0.00 72.4 22.5 83.8 n/a
2021 09 07 22:00 267.0 0.0 0.00 73.6 23.1 70.39 n/a
2021 09 07 23:00 265.0 0.0 0.00 71.8 22.1 63.59 n/a
2021 09 07 24:00 265.2 0.0 0.00 68.6 20.4 66.61 n/a
2021 09 08 1:00 265.3 0.0 0.00 66.5 19.2 68.28 n/a
2021 09 08 2:00 265.8 0.0 0.00 64.8 18.2 70.08 n/a
2021 09 08 3:00 281.8 0.0 0.00 61.8 16.6 80.5 n/a
2021 09 08 4:00 Wet 302.3 0.0 0.00 60.0 15.6 83.5 n/a
2021 09 08 5:00 Wet 284.7 0.0 0.00 59.4 15.2 83.5 n/a
2021 09 08 6:00 Wet 303.3 0.0 0.00 58.2 14.5 85.9 n/a
2021 09 08 7:00 Wet 312.5 0.0 0.00 58.2 14.6 87 n/a
2021 09 08 8:00 263.7 0.0 0.00 61.8 16.5 81.7 n/a
2021 09 08 9:00 261.8 0.0 0.00 66.9 19.4 69.89 n/a
2021 09 08 10:00 260.8 0.0 0.00 72.2 22.3 56.57 n/a
2021 09 08 11:00 260.2 0.0 0.00 75.4 24.1 45.96 n/a
2021 09 08 12:00 259.5 0.0 0.00 77.4 25.2 40.16 n/a
2021 09 08 13:00 259.4 0.0 0.00 78.5 25.8 36.61 n/a
2021 09 08 14:00 259.4 0.0 0.00 79.2 26.2 34.01 n/a
2021 09 08 15:00 259.4 0.0 0.00 79.8 26.6 31.02 n/a
2021 09 08 16:00 259.8 0.0 0.00 79.6 26.5 30.21 n/a
2021 09 08 17:00 260.0 0.0 0.00 79.4 26.3 31.97 n/a
2021 09 08 18:00 260.4 0.0 0.00 78.0 25.5 37.46 n/a
2021 09 08 19:00 261.8 0.0 0.00 74.3 23.5 46.65 n/a
2021 09 08 20:00 264.2 0.0 0.00 67.4 19.7 64.83 n/a
2021 09 08 21:00 266.3 0.0 0.00 64.7 18.1 74.18 n/a
2021 09 08 22:00 Wet 284.7 0.0 0.00 62.6 17.0 81.8 n/a
2021 09 08 23:00 Wet 330.6 0.0 0.00 61.3 16.3 87.2 n/a
2021 09 08 24:00 Wet 351.4 0.0 0.00 60.9 16.0 86.3 n/a
2021 09 09 1:00 Wet 388.0 0.0 0.00 59.5 15.3 88.7 n/a
2021 09 09 2:00 Wet 420.2 0.0 0.00 59.1 15.1 90.6 n/a
2021 09 09 3:00 Wet 431.7 0.0 0.00 58.4 14.7 92 n/a
2021 09 09 4:00 Wet 433.1 0.0 0.00 58.2 14.5 93.7 n/a
2021 09 09 5:00 Wet 430.6 0.0 0.00 57.9 14.4 94.3 n/a
2021 09 09 6:00 Wet 432.0 0.0 0.00 57.2 14.0 94.9 n/a
2021 09 09 7:00 Wet 398.5 0.0 0.00 57.7 14.3 95.2 n/a
2021 09 09 8:00 Wet 297.7 0.0 0.00 62.1 16.7 87.9 n/a
2021 09 09 9:00 262.1 0.0 0.00 67.3 19.6 73.32 n/a
2021 09 09 10:00 260.6 0.0 0.00 72.2 22.4 59.16 n/a
2021 09 09 11:00 259.9 0.0 0.00 74.4 23.6 51.3 n/a
2021 09 09 12:00 259.7 0.0 0.00 76.3 24.6 53.27 n/a
2021 09 09 13:00 259.6 0.0 0.00 78.1 25.6 50.35 n/a
2021 09 09 14:00 259.5 0.0 0.00 79.9 26.6 43.26 n/a
2021 09 09 15:00 259.9 0.0 0.00 80.9 27.2 41.71 n/a
2021 09 09 16:00 260.7 0.0 0.00 80.6 27.0 45.87 n/a
2021 09 09 17:00 261.3 0.0 0.00 80.0 26.6 48.34 n/a
2021 09 09 18:00 261.9 0.0 0.00 78.2 25.7 54.87 n/a
2021 09 09 19:00 263.8 0.0 0.00 74.7 23.7 64.65 n/a
2021 09 09 20:00 264.3 0.0 0.00 72.0 22.2 68.11 n/a
2021 09 09 21:00 264.9 0.0 0.00 69.7 20.9 70.4 n/a
2021 09 09 22:00 264.9 0.0 0.00 68.7 20.4 70.34 n/a
2021 09 09 23:00 264.9 0.0 0.00 68.6 20.3 68.04 n/a
2021 09 09 24:00 264.9 0.0 0.00 68.1 20.0 68.31 n/a
2021 09 10 1:00 264.9 0.0 0.00 67.3 19.6 69.29 n/a
2021 09 10 2:00 264.9 0.0 0.00 66.1 19.0 71.08 n/a
2021 09 10 3:00 265.0 0.0 0.00 64.9 18.3 73.03 n/a
2021 09 10 4:00 264.9 0.0 0.00 64.6 18.1 72.13 n/a
2021 09 10 5:00 264.9 0.0 0.00 64.2 17.9 72.39 n/a
2021 09 10 6:00 264.9 0.0 0.00 63.4 17.4 74.01 n/a
2021 09 10 7:00 264.9 0.0 0.00 63.1 17.3 75.29 n/a
2021 09 10 8:00 265.0 0.0 0.00 64.7 18.2 74.38 n/a
2021 09 10 9:00 263.3 0.0 0.00 68.1 20.1 70.37 n/a
2021 09 10 10:00 262.2 0.0 0.00 72.6 22.6 62.7 n/a
2021 09 10 11:00 261.4 0.0 0.00 76.9 25.0 57.15 n/a
2021 09 10 12:00 260.9 0.0 0.00 80.0 26.6 49.26 n/a
2021 09 10 13:00 260.6 0.0 0.00 82.0 27.8 46.37 n/a
2021 09 10 14:00 260.7 0.0 0.00 83.8 28.8 46.79 n/a
2021 09 10 15:00 260.9 0.0 0.00 84.6 29.2 47.39 n/a
2021 09 10 16:00 261.3 0.0 0.00 84.7 29.3 47.58 n/a
2021 09 10 17:00 261.9 0.0 0.00 83.7 28.7 53.95 n/a
2021 09 10 18:00 262.4 0.0 0.00 81.9 27.7 57.17 n/a
2021 09 10 19:00 263.1 0.0 0.00 78.5 25.8 60.89 n/a
2021 09 10 20:00 262.9 0.0 0.00 76.9 24.9 57.94 n/a
2021 09 10 21:00 263.2 0.0 0.00 74.8 23.8 60.26 n/a
2021 09 10 22:00 263.5 0.0 0.00 73.0 22.8 62.06 n/a
2021 09 10 23:00 263.5 0.0 0.00 71.3 21.8 64.23 n/a
2021 09 10 24:00 263.9 0.0 0.00 70.2 21.2 65.12 n/a
2021 09 11 1:00 264.4 0.0 0.00 68.9 20.5 67.6 n/a
2021 09 11 2:00 264.3 0.0 0.00 68.8 20.5 66.53 n/a
2021 09 11 3:00 264.1 0.0 0.00 69.6 20.9 63.52 n/a
2021 09 11 4:00 264.1 0.0 0.00 69.2 20.6 63.82 n/a
2021 09 11 5:00 264.1 0.0 0.00 69.0 20.6 63.17 n/a
2021 09 11 6:00 264.2 0.0 0.00 68.3 20.2 64.85 n/a
2021 09 11 7:00 264.0 0.0 0.00 68.5 20.3 64.45 n/a
2021 09 11 8:00 263.1 0.0 0.00 69.8 21.0 63.86 n/a
2021 09 11 9:00 262.2 0.0 0.00 73.0 22.8 59.43 n/a
2021 09 11 10:00 261.4 0.0 0.00 76.1 24.5 55.01 n/a
2021 09 11 11:00 261.1 0.0 0.00 78.6 25.9 52.49 n/a
2021 09 11 12:00 260.7 0.0 0.00 81.0 27.2 50.1 n/a
2021 09 11 13:00 260.7 0.0 0.00 82.8 28.2 47.89 n/a
2021 09 11 14:00 260.7 0.0 0.00 84.5 29.1 46.6 n/a
2021 09 11 15:00 260.7 0.0 0.00 85.6 29.8 45.25 n/a
2021 09 11 16:00 261.1 0.0 0.00 85.6 29.8 45.33 n/a
2021 09 11 17:00 261.7 0.0 0.00 84.3 29.1 50.8 n/a
2021 09 11 18:00 262.3 0.0 0.00 81.3 27.4 55.83 n/a
2021 09 11 19:00 262.8 0.0 0.00 77.8 25.5 58.95 n/a
2021 09 11 20:00 263.4 0.0 0.00 75.8 24.3 60.37 n/a
2021 09 11 21:00 263.2 0.0 0.00 75.1 23.9 58.57 n/a
2021 09 11 22:00 263.5 0.0 0.00 73.2 22.9 62.01 n/a
2021 09 11 23:00 263.4 0.0 0.00 73.8 23.2 59.53 n/a
2021 09 11 24:00 262.9 0.0 0.00 74.7 23.7 56.71 n/a
2021 09 12 1:00 262.8 0.0 0.00 74.3 23.5 57.1 n/a
2021 09 12 2:00 262.8 0.0 0.00 73.5 23.1 57.67 n/a
2021 09 12 3:00 263.4 0.0 0.00 72.2 22.3 60.2 n/a
2021 09 12 4:00 263.5 0.0 0.00 71.1 21.7 61.89 n/a
2021 09 12 5:00 263.5 0.0 0.00 70.1 21.2 64.36 n/a
2021 09 12 6:00 263.9 0.0 0.00 69.3 20.7 66.55 n/a
2021 09 12 7:00 264.1 0.0 0.00 68.2 20.1 69.82 n/a
2021 09 12 8:00 263.3 0.0 0.00 69.2 20.6 68.91 n/a
2021 09 12 9:00 262.3 0.0 0.00 71.6 22.0 64.99 n/a
2021 09 12 10:00 261.6 0.0 0.00 74.3 23.5 60.89 n/a
2021 09 12 11:00 261.2 0.0 0.00 77.6 25.3 56.6 n/a
2021 09 12 12:00 260.7 0.0 0.00 80.1 26.7 52.02 n/a
2021 09 12 13:00 260.7 0.0 0.00 82.0 27.8 50.18 n/a
2021 09 12 14:00 260.8 0.0 0.00 83.2 28.5 49.67 n/a
2021 09 12 15:00 261.3 0.0 0.00 83.6 28.7 50.18 n/a
2021 09 12 16:00 261.4 0.0 0.00 84.1 28.9 50.13 n/a
2021 09 12 17:00 261.9 0.0 0.00 83.4 28.6 51.69 n/a
2021 09 12 18:00 262.2 0.0 0.00 81.7 27.6 55.77 n/a
2021 09 12 19:00 263.9 0.0 0.00 77.5 25.3 66.02 n/a
2021 09 12 20:00 264.2 0.0 0.00 75.2 24.0 66.09 n/a
2021 09 12 21:00 264.0 0.0 0.00 73.7 23.2 64.11 n/a
2021 09 12 22:00 264.3 0.0 0.00 72.1 22.3 65.19 n/a
2021 09 12 23:00 264.2 0.0 0.00 70.5 21.4 65.69 n/a
2021 09 12 24:00 264.9 0.0 0.00 68.5 20.3 69.76 n/a
2021 09 13 1:00 265.5 0.0 0.00 66.1 19.0 75.25 n/a
2021 09 13 2:00 265.5 0.0 0.00 65.3 18.5 75.96 n/a
2021 09 13 3:00 265.8 0.0 0.00 64.8 18.2 76.54 n/a
2021 09 13 4:00 266.5 0.0 0.00 63.8 17.6 78.86 n/a
2021 09 13 5:00 268.7 0.0 0.00 62.7 17.0 81.7 n/a
2021 09 13 6:00 269.0 0.0 0.00 62.0 16.7 83.2 n/a
2021 09 13 7:00 267.4 0.0 0.00 61.9 16.6 83.4 n/a
2021 09 13 8:00 264.5 0.0 0.00 64.4 18.0 78.85 n/a
2021 09 13 9:00 262.9 0.0 0.00 69.5 20.9 71.67 n/a
2021 09 13 10:00 262.1 0.0 0.00 74.6 23.7 66.84 n/a
2021 09 13 11:00 261.9 0.0 0.00 79.3 26.3 62.19 n/a
2021 09 13 12:00 261.4 0.0 0.00 81.9 27.7 57.26 n/a
2021 09 13 13:00 261.4 0.0 0.00 83.3 28.5 54.87 n/a
2021 09 13 14:00 261.4 0.0 0.00 84.6 29.2 52.72 n/a
2021 09 13 15:00 261.7 0.0 0.00 85.1 29.5 52.4 n/a
2021 09 13 16:00 262.1 0.0 0.00 85.0 29.5 52.43 n/a
2021 09 13 17:00 262.1 0.0 0.00 84.7 29.3 52.94 n/a
2021 09 13 18:00 262.3 0.0 0.00 82.9 28.3 54.22 n/a
2021 09 13 19:00 263.0 0.0 0.00 79.4 26.3 57.35 n/a
2021 09 13 20:00 263.4 0.0 0.00 76.5 24.7 59.37 n/a
2021 09 13 21:00 263.5 0.0 0.00 75.0 23.9 60.83 n/a
2021 09 13 22:00 264.0 0.0 0.00 73.5 23.1 64.52 n/a
2021 09 13 23:00 264.5 0.0 0.00 73.1 22.8 69.65 n/a
2021 09 13 24:00 265.3 0.0 0.00 71.3 21.8 76.38 n/a
2021 09 14 1:00 266.5 0.0 0.00 70.1 21.2 80.5 n/a
2021 09 14 2:00 267.2 0.0 0.00 69.8 21.0 82.4 n/a
2021 09 14 3:00 268.3 0.0 0.00 69.2 20.7 85.6 n/a
2021 09 14 4:00 270.1 0.0 0.00 69.2 20.7 87.6 n/a
2021 09 14 5:00 271.0 0.0 0.00 69.5 20.8 88.7 n/a
2021 09 14 6:00 271.2 0.0 0.00 69.3 20.7 90.8 n/a
2021 09 14 7:00 270.8 0.0 0.00 69.8 21.0 90.5 n/a
2021 09 14 8:00 265.7 0.0 0.00 72.0 22.2 86.4 n/a
2021 09 14 9:00 264.0 0.0 0.00 74.6 23.7 78.3 n/a
2021 09 14 10:00 262.5 0.0 0.00 77.5 25.3 70.15 n/a
2021 09 14 11:00 261.8 0.0 0.00 80.2 26.8 63.84 n/a
2021 09 14 12:00 261.4 0.0 0.00 82.1 27.9 60.07 n/a
2021 09 14 13:00 261.7 0.0 0.00 82.6 28.1 59.38 n/a
2021 09 14 14:00 261.8 0.0 0.00 82.9 28.3 59.42 n/a
2021 09 14 15:00 261.9 0.0 0.00 83.3 28.5 58.22 n/a
2021 09 14 16:00 262.1 0.0 0.00 83.3 28.5 57.54 n/a
2021 09 14 17:00 262.3 0.0 0.00 83.2 28.4 58.26 n/a
2021 09 14 18:00 Wet 299.9 0.0 0.00 79.6 26.5 68.51 n/a
2021 09 14 19:00 266.3 0.0 0.00 76.6 24.8 77.63 n/a
2021 09 14 20:00 266.6 0.0 0.00 73.5 23.1 82.1 n/a
2021 09 14 21:00 266.9 0.0 0.00 71.4 21.9 81.6 n/a
2021 09 14 22:00 266.6 0.0 0.00 70.5 21.4 81.5 n/a
2021 09 14 23:00 266.0 0.0 0.00 69.9 21.1 77.6 n/a
2021 09 14 24:00 266.2 0.0 0.00 69.6 20.9 79.15 n/a
2021 09 15 1:00 Wet 404.6 0.0 0.51 68.4 20.2 83.4 n/a
2021 09 15 2:00 Wet 481.9 0.4 9.65 67.0 19.4 91.1 n/a
2021 09 15 3:00 Wet 386.1 0.0 0.00 65.9 18.9 94.5 n/a
2021 09 15 4:00 Wet 348.2 0.0 0.00 66.0 18.9 95.5 n/a
2021 09 15 5:00 Wet 333.5 0.0 0.00 65.3 18.5 95 n/a
2021 09 15 6:00 Wet 348.7 0.0 0.00 64.8 18.3 95.3 n/a
2021 09 15 7:00 Wet 347.6 0.0 0.00 64.7 18.1 95.6 n/a
2021 09 15 8:00 Wet 303.4 0.0 0.00 65.7 18.7 95.5 n/a
2021 09 15 9:00 265.5 0.0 0.00 68.0 20.0 89.7 n/a
2021 09 15 10:00 262.6 0.0 0.00 71.0 21.7 79.59 n/a
2021 09 15 11:00 261.6 0.0 0.00 73.7 23.1 70.27 n/a
2021 09 15 12:00 261.0 0.0 0.00 75.6 24.2 63.83 n/a
2021 09 15 13:00 261.1 0.0 0.00 76.8 24.9 62.09 n/a
2021 09 15 14:00 261.3 0.0 0.00 77.6 25.3 59.47 n/a
2021 09 15 15:00 261.6 0.0 0.00 78.2 25.7 56.1 n/a
2021 09 15 16:00 262.0 0.0 0.00 78.1 25.6 51.78 n/a
2021 09 15 17:00 262.1 0.0 0.00 78.0 25.6 52.88 n/a
2021 09 15 18:00 262.2 0.0 0.00 76.6 24.8 54.24 n/a
2021 09 15 19:00 264.3 0.0 0.00 72.2 22.4 65.15 n/a
2021 09 15 20:00 265.7 0.0 0.00 68.9 20.5 71.76 n/a
2021 09 15 21:00 267.5 0.0 0.00 67.2 19.5 76.23 n/a
2021 09 15 22:00 272.4 0.0 0.00 65.7 18.7 79.75 n/a
2021 09 15 23:00 266.7 0.0 0.00 66.1 19.0 76.9 n/a
2021 09 15 24:00 266.0 0.0 0.00 66.5 19.1 73.88 n/a
2021 09 16 1:00 265.5 0.0 0.00 67.8 19.9 72.43 n/a
2021 09 16 2:00 265.8 0.0 0.00 67.0 19.4 77.17 n/a
2021 09 16 3:00 266.3 0.0 0.00 66.3 19.1 80.1 n/a
2021 09 16 4:00 266.9 0.0 0.00 65.3 18.5 83.2 n/a
2021 09 16 5:00 267.8 0.0 0.00 64.9 18.3 85.1 n/a
2021 09 16 6:00 270.2 0.0 0.00 64.1 17.8 87.7 n/a
2021 09 16 7:00 267.7 0.0 0.00 64.5 18.0 87 n/a
2021 09 16 8:00 264.1 0.0 0.00 67.6 19.8 80.9 n/a
2021 09 16 9:00 263.3 0.0 0.00 70.6 21.5 78.58 n/a
2021 09 16 10:00 262.3 0.0 0.00 74.0 23.4 74.17 n/a
2021 09 16 11:00 261.7 0.0 0.00 77.6 25.3 69.27 n/a
2021 09 16 12:00 261.4 0.0 0.00 79.8 26.6 65.83 n/a
2021 09 16 13:00 261.4 0.0 0.00 81.5 27.5 61.81 n/a
2021 09 16 14:00 261.6 0.0 0.00 82.7 28.2 58.62 n/a
2021 09 16 15:00 262.0 0.0 0.00 83.4 28.6 55.67 n/a
2021 09 16 16:00 262.1 0.0 0.00 83.4 28.6 53.66 n/a
2021 09 16 17:00 262.1 0.0 0.00 82.8 28.3 52.97 n/a
2021 09 16 18:00 262.5 0.0 0.00 81.2 27.4 56.27 n/a
2021 09 16 19:00 263.9 0.0 0.00 77.6 25.3 65.43 n/a
2021 09 16 20:00 265.3 0.0 0.00 74.4 23.5 73.18 n/a
2021 09 16 21:00 265.5 0.0 0.00 72.9 22.7 73.5 n/a
2021 09 16 22:00 265.1 0.0 0.00 72.7 22.6 71.13 n/a
2021 09 16 23:00 264.9 0.0 0.00 72.6 22.6 68.41 n/a
2021 09 16 24:00 264.9 0.0 0.00 71.0 21.7 71.33 n/a
2021 09 17 1:00 265.4 0.0 0.00 69.4 20.8 74.9 n/a
2021 09 17 2:00 265.7 0.0 0.00 68.5 20.3 77.14 n/a
2021 09 17 3:00 265.6 0.0 0.00 68.4 20.2 78.38 n/a
2021 09 17 4:00 266.3 0.0 0.00 67.9 19.9 80.3 n/a
2021 09 17 5:00 267.0 0.0 0.00 67.0 19.4 83.1 n/a
2021 09 17 6:00 268.7 0.0 0.00 66.1 19.0 85.7 n/a
2021 09 17 7:00 267.4 0.0 0.00 66.4 19.1 86.1 n/a
2021 09 17 8:00 264.9 0.0 0.00 68.9 20.5 82.6 n/a
2021 09 17 9:00 263.2 0.0 0.00 72.9 22.7 76.08 n/a
2021 09 17 10:00 263.0 0.0 0.00 74.8 23.8 73.82 n/a
2021 09 17 11:00 261.0 0.0 0.00 77.8 25.4 68.19 n/a
2021 09 17 12:00 260.2 0.0 0.00 80.5 27.0 62.8 n/a
2021 09 17 13:00 260.4 0.0 0.00 82.8 28.2 59.04 n/a
2021 09 17 14:00 260.5 0.0 0.00 84.7 29.3 52.85 n/a
2021 09 17 15:00 260.7 0.0 0.00 85.2 29.6 49.59 n/a
2021 09 17 16:00 261.3 0.0 0.00 85.0 29.4 50.3 n/a
2021 09 17 17:00 261.6 0.0 0.00 84.4 29.1 51.26 n/a
2021 09 17 18:00 262.3 0.0 0.00 83.1 28.4 54.77 n/a
2021 09 17 19:00 264.3 0.0 0.00 78.7 26.0 68.81 n/a
2021 09 17 20:00 265.1 0.0 0.00 76.5 24.7 72.45 n/a
2021 09 17 21:00 266.2 0.0 0.00 74.2 23.4 76.97 n/a
2021 09 17 22:00 267.8 0.0 0.00 72.5 22.5 81.9 n/a
2021 09 17 23:00 265.9 0.0 0.00 72.8 22.7 77.52 n/a
2021 09 17 24:00 266.9 0.0 0.00 71.2 21.8 81.5 n/a
2021 09 18 1:00 267.3 0.0 0.00 70.1 21.1 83.1 n/a
2021 09 18 2:00 268.7 0.0 0.00 69.2 20.6 84.5 n/a
2021 09 18 3:00 273.9 0.0 0.00 67.9 19.9 87.1 n/a
2021 09 18 4:00 281.3 0.0 0.00 66.6 19.2 89.2 n/a
2021 09 18 5:00 Wet 298.1 0.0 0.00 65.8 18.8 90.4 n/a
2021 09 18 6:00 Wet 337.1 0.0 0.00 65.0 18.3 92.2 n/a
2021 09 18 7:00 Wet 344.0 0.0 0.00 65.0 18.3 92.4 n/a
2021 09 18 8:00 267.2 0.0 0.00 68.4 20.2 86 n/a
2021 09 18 9:00 262.2 0.0 0.00 72.5 22.5 77.53 n/a
2021 09 18 10:00 260.9 0.0 0.00 76.0 24.4 69.96 n/a
2021 09 18 11:00 260.1 0.0 0.00 80.0 26.7 61.14 n/a
2021 09 18 12:00 259.5 0.0 0.00 82.8 28.2 53.2 n/a
2021 09 18 13:00 259.8 0.0 0.00 83.9 28.8 49.53 n/a
2021 09 18 14:00 259.9 0.0 0.00 84.6 29.2 46.88 n/a
2021 09 18 15:00 260.4 0.0 0.00 84.9 29.4 46.3 n/a
2021 09 18 16:00 261.0 0.0 0.00 84.3 29.0 48.49 n/a
2021 09 18 17:00 261.4 0.0 0.00 83.8 28.8 50.66 n/a
2021 09 18 18:00 262.1 0.0 0.00 82.2 27.9 55.35 n/a
2021 09 18 19:00 264.3 0.0 0.00 77.7 25.4 67.72 n/a
2021 09 18 20:00 265.2 0.0 0.00 74.7 23.7 73.18 n/a
2021 09 18 21:00 266.1 0.0 0.00 72.8 22.7 78.22 n/a
2021 09 18 22:00 268.4 0.0 0.00 71.4 21.9 82.1 n/a
2021 09 18 23:00 273.1 0.0 0.00 70.4 21.3 83.9 n/a
2021 09 18 24:00 271.5 0.0 0.00 70.0 21.1 84.4 n/a
2021 09 19 1:00 273.6 0.0 0.00 69.7 20.9 85.3 n/a
2021 09 19 2:00 274.4 0.0 0.00 69.2 20.7 86.1 n/a
2021 09 19 3:00 273.6 0.0 0.00 69.1 20.6 86.6 n/a
2021 09 19 4:00 274.5 0.0 0.00 68.8 20.4 87.6 n/a
2021 09 19 5:00 278.0 0.0 0.00 68.4 20.2 89 n/a
2021 09 19 6:00 Wet 302.0 0.0 0.00 67.7 19.9 90.1 n/a
2021 09 19 7:00 Wet 315.0 0.0 0.00 67.5 19.7 91.2 n/a
2021 09 19 8:00 264.3 0.0 0.00 71.0 21.6 85.2 n/a
2021 09 19 9:00 262.8 0.0 0.00 74.4 23.6 78.13 n/a
2021 09 19 10:00 262.1 0.0 0.00 76.9 24.9 72.37 n/a
2021 09 19 11:00 261.6 0.0 0.00 78.9 26.1 67.61 n/a
2021 09 19 12:00 261.4 0.0 0.00 80.1 26.7 64.8 n/a
2021 09 19 13:00 261.4 0.0 0.00 81.3 27.4 60.87 n/a
2021 09 19 14:00 261.5 0.0 0.00 82.3 27.9 57.46 n/a
2021 09 19 15:00 261.4 0.0 0.00 82.8 28.3 52.11 n/a
2021 09 19 16:00 262.0 0.0 0.00 82.7 28.1 51.5 n/a
2021 09 19 17:00 262.1 0.0 0.00 82.1 27.9 52.1 n/a
2021 09 19 18:00 262.5 0.0 0.00 80.5 26.9 57.25 n/a
2021 09 19 19:00 263.6 0.0 0.00 77.0 25.0 66.59 n/a
2021 09 19 20:00 264.6 0.0 0.00 74.3 23.5 71.9 n/a
2021 09 19 21:00 264.8 0.0 0.00 73.2 22.9 73.77 n/a
2021 09 19 22:00 265.0 0.0 0.00 72.4 22.4 75.85 n/a
2021 09 19 23:00 265.6 0.0 0.00 71.2 21.8 79.04 n/a
2021 09 19 24:00 265.7 0.0 0.00 70.7 21.5 79.95 n/a
2021 09 20 1:00 266.2 0.0 0.00 70.0 21.1 81.4 n/a
2021 09 20 2:00 266.8 0.0 0.00 69.2 20.6 84.3 n/a
2021 09 20 3:00 267.3 0.0 0.00 68.8 20.5 86.3 n/a
2021 09 20 4:00 268.2 0.0 0.00 68.6 20.3 88.1 n/a
2021 09 20 5:00 269.8 0.0 0.00 68.3 20.1 89.7 n/a
2021 09 20 6:00 272.1 0.0 0.00 68.0 20.0 91.1 n/a
2021 09 20 7:00 271.7 0.0 0.00 68.0 20.0 91.6 n/a
2021 09 20 8:00 265.9 0.0 0.00 69.9 21.1 88.8 n/a
2021 09 20 9:00 264.6 0.0 0.00 73.7 23.1 82.1 n/a
2021 09 20 10:00 263.8 0.0 0.00 76.6 24.8 75.56 n/a
2021 09 20 11:00 262.8 0.0 0.00 79.4 26.4 69.31 n/a
2021 09 20 12:00 262.4 0.0 0.00 81.9 27.7 63.94 n/a
2021 09 20 13:00 262.2 0.0 0.00 83.5 28.6 61.11 n/a
2021 09 20 14:00 262.5 0.0 0.00 84.1 28.9 58.61 n/a
2021 09 20 15:00 262.3 0.0 0.00 85.0 29.4 57.34 n/a
2021 09 20 16:00 262.3 0.0 0.00 86.4 30.2 54.44 n/a
CST mV in mm F C % mph
Year Month Day Hour Leaf Wetness Total
Precipitation
Avg. Temp Avg. Rel.
Humidity
Wind
Speed

Back to the top of the page